Norwegian Sun — C6RN3 — position and weather

sailwx.info

Track history (hours):
 
Tides and Currents Weather Stations Pressure Air Temp Water Temp Dewpoint Dewpoint Depression Visibility Wind Speed Wind Dir Waves Ship Positions

Norwegian Sun

Operator: Norwegian Cruise Line

Last reported at 2018-May-25 01:29 UTC. Time now 2018-May-27 09:50 UTC.
Position N 26°23' W 079°29'.

Type: Passenger vessel. MMSI: 311109000.

Date/timePositionNaut miles runAvg speedWind from/ knotsBaromVisibWave heightAir tempDewpointWater temp
2018-May-25 01:29N 26°23' W 079°29'1019.5
2018-May-25 01:00N 26°14' W 079°31'1019.7
2018-May-25 00:30N 26°04' W 079°33'1019.2
2018-May-25 00:00N 25°55' W 079°35'1019.2
2018-May-24 23:30N 25°45' W 079°37'1019.7
2018-May-24 23:00N 25°35' W 079°37'1019.5
2018-May-24 22:30N 25°25' W 079°38'  
2018-May-22 07:58N 25°23' W 079°40'917.6
2018-May-22 07:29N 25°32' W 079°39'817.5
2018-May-22 07:00N 25°40' W 079°37'917.5
2018-May-22 06:30N 25°49' W 079°35'  
2018-May-18 01:34N 26°27' W 079°29'216.3
2018-May-18 01:26N 26°25' W 079°29'716.3
2018-May-18 01:00N 26°18' W 079°30'816.5
2018-May-18 00:30N 26°10' W 079°32'816.8
2018-May-18 00:00N 26°02' W 079°33'917.0
2018-May-17 23:30N 25°53' W 079°35'917.2
2018-May-17 23:00N 25°45' W 079°37'917.1
2018-May-17 22:30N 25°36' W 079°37'612.9
2018-May-17 22:00N 25°30' W 079°38'816.7
2018-May-17 21:30N 25°22' W 079°39'816.5
2018-May-17 21:00N 25°13' W 079°39'  
2018-May-15 07:26N 25°13' W 079°40'819.3
2018-May-15 07:00N 25°21' W 079°39'1019.3
2018-May-15 06:30N 25°31' W 079°39'1019.3
2018-May-15 06:00N 25°40' W 079°37'1019.4
2018-May-15 05:30N 25°50' W 079°35'1019.4
2018-May-15 05:00N 25°59' W 079°33'1019.4
2018-May-15 04:30N 26°09' W 079°31'1019.1
2018-May-15 04:00N 26°18' W 079°29'  
Track history (hours):
 
Tides and Currents Weather Stations Pressure Air Temp Water Temp Dewpoint Dewpoint Depression Visibility Wind Speed Wind Dir Waves Ship Positions

Norwegian Sun

Operator: Norwegian Cruise Line

Last reported at 2018-May-25 01:29 UTC. Time now 2018-May-27 09:50 UTC.
Position N 26°23' W 079°29'.

Type: Passenger vessel. MMSI: 311109000.

Date/timePositionNaut miles runAvg speedWind from/ knotsBaromVisibWave heightAir tempDewpointWater temp
2018-May-25 01:29N 26°23' W 079°29'1019.5
2018-May-25 01:00N 26°14' W 079°31'1019.7
2018-May-25 00:30N 26°04' W 079°33'1019.2
2018-May-25 00:00N 25°55' W 079°35'1019.2
2018-May-24 23:30N 25°45' W 079°37'1019.7
2018-May-24 23:00N 25°35' W 079°37'1019.5
2018-May-24 22:30N 25°25' W 079°38'  
2018-May-22 07:58N 25°23' W 079°40'917.6
2018-May-22 07:29N 25°32' W 079°39'817.5
2018-May-22 07:00N 25°40' W 079°37'917.5
2018-May-22 06:30N 25°49' W 079°35'  
2018-May-18 01:34N 26°27' W 079°29'216.3
2018-May-18 01:26N 26°25' W 079°29'716.3
2018-May-18 01:00N 26°18' W 079°30'816.5
2018-May-18 00:30N 26°10' W 079°32'816.8
2018-May-18 00:00N 26°02' W 079°33'917.0
2018-May-17 23:30N 25°53' W 079°35'917.2
2018-May-17 23:00N 25°45' W 079°37'917.1
2018-May-17 22:30N 25°36' W 079°37'612.9
2018-May-17 22:00N 25°30' W 079°38'816.7
2018-May-17 21:30N 25°22' W 079°39'816.5
2018-May-17 21:00N 25°13' W 079°39'  
2018-May-15 07:26N 25°13' W 079°40'819.3
2018-May-15 07:00N 25°21' W 079°39'1019.3
2018-May-15 06:30N 25°31' W 079°39'1019.3
2018-May-15 06:00N 25°40' W 079°37'1019.4
2018-May-15 05:30N 25°50' W 079°35'1019.4
2018-May-15 05:00N 25°59' W 079°33'1019.4
2018-May-15 04:30N 26°09' W 079°31'1019.1
2018-May-15 04:00N 26°18' W 079°29'  

Dump ship's entire track history